Airfield :
LOGIN :

Register | Disclaimer

   EN    FR    IT 

 










Legend :    VFR   Marginal VFR   IFR   Intensive IFR   Very Intensive IFR
Visi :
Ceiling :
>= 8 km
>= 3000ft
5 to 8 km
1000 to 3000 ft
1500m to 5 km
500 to 1000 ft
800 to 1500m
200 to 500 ft
< 800m
< 200 ft
Symbols :   Thunderstorms  Fog  Heavy snow  Heavy precipitations  Wind > 20 kt
SIGMETs :     Misc.  Thunderstorms  Icing  Turbulence  Mountain Waves  Volcanic Ashes






- Airport Elevation : 3 ft
- IATA code : LWR


EHLW - Leuuwarden Air Base

CURRENT METAR :
  • 241755Z AUTO 18008KT 160V220 9999 BKN089 BKN360 13/08 Q1025 BLU

EXPIRED METARs :
  • 241725Z AUTO 19010KT 9999 FEW065 BKN073 OVC079 14/09 Q1025 BLU
  • 241655Z AUTO 19008KT 160V220 9999 FEW063 BKN078 OVC083 15/11 Q1025 BLU
  • 241625Z AUTO 19009KT 150V230 9999 BKN083 OVC088 15/11 Q1025 BLU
  • 241555Z AUTO 18011KT 150V210 9999 FEW045 BKN064 BKN069 16/11 Q1025 BLU
  • 241540Z AUTO 18011KT 140V210 9999 FEW062 SCT077 OVC084 16/11 Q1025 BLU
  • 241525Z AUTO 18014KT 130V210 9999 FEW052 BKN073 OVC078 16/11 Q1025 BLU TEMPO 21015G25KT

TAF TAF EHLW
Valid from the 24 at 14:00 until the 25 at 02:00 UTC


241336Z 2414/2502 20013KT CAVOK



MET'MAP, your aeronautical weather chart ! - Copyright ORBIFLY December 2007 - Disclaimer

ORBIFLY MET'MAP TEAM :

Programming & Development : Alexandra Zaïnal
Concept & original design : Baudouin d'Aumeries
Assistance for programming : Marc-Olivier Méhu
Technical & hardware support : Manuel Goepfert

Contact : metmap@orbifly.com




SOURCES & CREDITS :

   NOAA